createdAt,value
2018-03-30T00:00:01.989Z,1.10
2018-03-30T00:02:27.755Z,1.08
2018-03-30T00:04:53.515Z,1.07
2018-03-30T00:07:19.289Z,1.12
2018-03-30T00:09:56.131Z,1.23
2018-03-30T00:12:21.886Z,1.11
2018-03-30T00:14:47.633Z,1.02
2018-03-30T00:17:13.551Z,0.97
2018-03-30T00:19:39.287Z,0.90
2018-03-30T00:22:05.018Z,0.89
2018-03-30T00:24:30.765Z,0.96
2018-03-30T00:26:56.530Z,0.98
2018-03-30T00:29:22.269Z,1.04
2018-03-30T00:31:48.014Z,1.08
2018-03-30T00:34:13.774Z,0.92
2018-03-30T00:36:39.532Z,0.84
2018-03-30T00:39:05.286Z,0.77
2018-03-30T00:41:31.041Z,0.73
2018-03-30T00:43:56.798Z,0.68
2018-03-30T00:46:22.545Z,0.62
2018-03-30T00:48:49.315Z,0.60
2018-03-30T00:51:15.243Z,0.59
2018-03-30T00:53:46.853Z,0.46
2018-03-30T00:56:12.611Z,0.43
2018-03-30T00:58:38.369Z,0.51
2018-03-30T01:01:04.227Z,0.52
2018-03-30T01:03:29.989Z,0.35
2018-03-30T01:05:55.737Z,0.29
2018-03-30T01:08:21.494Z,0.36
2018-03-30T01:10:47.255Z,0.11
2018-03-30T01:13:13.006Z,0.06
2018-03-30T01:15:38.790Z,0.13
2018-03-30T01:18:04.547Z,0.10
2018-03-30T01:20:30.297Z,0.12
2018-03-30T01:22:56.110Z,0.07
2018-03-30T01:25:21.846Z,0.03
2018-03-30T01:27:47.588Z,-0.05
2018-03-30T01:30:13.371Z,-0.04
2018-03-30T01:32:39.141Z,-0.24
2018-03-30T01:35:04.903Z,-0.32
2018-03-30T01:37:30.645Z,-0.27
2018-03-30T01:39:56.399Z,-0.17
2018-03-30T01:42:22.161Z,-0.09
2018-03-30T01:44:47.928Z,-0.01
2018-03-30T01:47:13.665Z,-0.04
2018-03-30T01:49:39.494Z,-0.13
2018-03-30T01:52:05.257Z,-0.11
2018-03-30T01:54:31.021Z,-0.01
2018-03-30T01:56:56.774Z,-0.09
2018-03-30T01:59:22.543Z,-0.12
2018-03-30T02:01:48.274Z,-0.20
2018-03-30T02:04:14.047Z,-0.23
2018-03-30T02:06:40.170Z,-0.28
2018-03-30T02:09:05.939Z,-0.38
2018-03-30T02:11:31.690Z,-0.43
2018-03-30T02:13:57.437Z,-0.38
2018-03-30T02:16:23.178Z,-0.37
2018-03-30T02:18:49.075Z,-0.43
2018-03-30T02:21:14.871Z,-0.57
2018-03-30T02:23:40.609Z,-0.58
2018-03-30T02:26:06.355Z,-0.65
2018-03-30T02:28:32.097Z,-0.58
2018-03-30T02:30:57.863Z,-0.52
2018-03-30T02:33:23.616Z,-0.46
2018-03-30T02:35:49.379Z,-0.63
2018-03-30T02:38:15.116Z,-0.63
2018-03-30T02:40:40.883Z,-0.76
2018-03-30T02:43:06.627Z,-0.70
2018-03-30T02:45:32.397Z,-0.70
2018-03-30T02:47:58.158Z,-1.00
2018-03-30T02:50:23.933Z,-1.02
2018-03-30T02:52:49.699Z,-0.85
2018-03-30T02:55:15.446Z,-0.89
2018-03-30T02:57:41.207Z,-0.91
2018-03-30T03:00:07.354Z,-1.19
2018-03-30T03:02:33.158Z,-1.12
2018-03-30T03:04:58.906Z,-0.95
2018-03-30T03:07:24.651Z,-0.89
2018-03-30T03:09:50.454Z,-0.95
2018-03-30T03:12:16.228Z,-0.92
2018-03-30T03:14:41.966Z,-0.98
2018-03-30T03:17:07.722Z,-0.95
2018-03-30T03:19:33.474Z,-0.89
2018-03-30T03:21:59.230Z,-0.91
2018-03-30T03:24:24.970Z,-1.11
2018-03-30T03:26:50.738Z,-1.23
2018-03-30T03:29:16.474Z,-1.21
2018-03-30T03:31:42.244Z,-1.06
2018-03-30T03:34:07.986Z,-1.03
2018-03-30T03:36:33.742Z,-1.09
2018-03-30T03:38:59.486Z,-1.14
2018-03-30T03:41:25.242Z,-1.17
2018-03-30T03:43:50.985Z,-1.18
2018-03-30T03:46:16.737Z,-1.30
2018-03-30T03:48:42.641Z,-1.38
2018-03-30T03:51:08.423Z,-1.35
2018-03-30T03:53:34.174Z,-1.32
2018-03-30T03:55:59.926Z,-1.32
2018-03-30T03:58:25.668Z,-1.43
2018-03-30T04:00:51.424Z,-1.43
2018-03-30T04:03:17.178Z,-1.50
2018-03-30T04:05:42.929Z,-1.46
2018-03-30T04:08:08.709Z,-1.57
2018-03-30T04:10:34.454Z,-1.53
2018-03-30T04:13:00.222Z,-1.78
2018-03-30T04:15:25.966Z,-1.65
2018-03-30T04:17:51.723Z,-1.62
2018-03-30T04:20:17.463Z,-1.65
2018-03-30T04:22:43.207Z,-1.56
2018-03-30T04:25:08.950Z,-1.89
2018-03-30T04:27:34.711Z,-1.91
2018-03-30T04:30:00.468Z,-1.79
2018-03-30T04:32:26.232Z,-1.70
2018-03-30T04:34:51.983Z,-1.74
2018-03-30T04:37:17.738Z,-1.71
2018-03-30T04:39:43.490Z,-1.91
2018-03-30T04:42:09.256Z,-2.02
2018-03-30T04:44:35.006Z,-2.06
2018-03-30T04:47:00.766Z,-1.91
2018-03-30T04:49:26.517Z,-1.94
2018-03-30T04:51:52.271Z,-1.88
2018-03-30T04:54:18.012Z,-1.82
2018-03-30T04:56:43.759Z,-1.88
2018-03-30T04:59:09.518Z,-1.85
2018-03-30T05:01:35.279Z,-1.95
2018-03-30T05:04:01.026Z,-1.99
2018-03-30T05:06:26.781Z,-1.76
2018-03-30T05:08:52.534Z,-1.83
2018-03-30T05:11:18.289Z,-1.78
2018-03-30T05:13:44.049Z,-1.78
2018-03-30T05:16:09.797Z,-1.90
2018-03-30T05:18:35.574Z,-1.99
2018-03-30T05:21:01.340Z,-2.05
2018-03-30T05:23:27.095Z,-1.94
2018-03-30T05:25:52.826Z,-1.91
2018-03-30T05:28:18.572Z,-1.89
2018-03-30T05:30:44.311Z,-1.84
2018-03-30T05:33:10.079Z,-1.78
2018-03-30T05:35:35.813Z,-1.67
2018-03-30T05:38:01.549Z,-1.57
2018-03-30T05:40:27.289Z,-1.65
2018-03-30T05:42:53.046Z,-1.61
2018-03-30T05:45:18.811Z,-1.60
2018-03-30T05:47:44.554Z,-1.54
2018-03-30T05:50:10.335Z,-1.34
2018-03-30T05:52:36.092Z,-1.30
2018-03-30T05:55:01.860Z,-1.25
2018-03-30T05:57:27.619Z,-1.23
2018-03-30T05:59:53.361Z,-1.20
2018-03-30T06:02:19.117Z,-1.13
2018-03-30T06:04:44.879Z,-1.00
2018-03-30T06:07:10.640Z,-0.90
2018-03-30T06:09:36.397Z,-0.89
2018-03-30T06:12:02.157Z,-0.73
2018-03-30T06:14:27.923Z,-0.58
2018-03-30T06:16:53.710Z,-0.58
2018-03-30T06:19:19.427Z,-0.58
2018-03-30T06:21:45.177Z,-0.50
2018-03-30T06:24:10.932Z,-0.48
2018-03-30T06:26:36.686Z,-0.45
2018-03-30T06:29:02.466Z,-0.22
2018-03-30T06:31:28.207Z,-0.08
2018-03-30T06:33:53.966Z,0.07
2018-03-30T06:36:19.722Z,0.19
2018-03-30T06:38:45.469Z,0.23
2018-03-30T06:41:11.239Z,0.45
2018-03-30T06:43:36.986Z,0.51
2018-03-30T06:46:02.762Z,0.60
2018-03-30T06:48:28.507Z,0.69
2018-03-30T06:50:54.267Z,0.67
2018-03-30T06:53:20.020Z,0.71
2018-03-30T06:55:45.778Z,0.94
2018-03-30T06:58:11.527Z,0.88
2018-03-30T07:00:37.283Z,1.02
2018-03-30T07:03:03.035Z,0.96
2018-03-30T07:05:28.788Z,1.09
2018-03-30T07:07:54.531Z,1.16
2018-03-30T07:10:20.297Z,1.23
2018-03-30T07:12:46.046Z,1.28
2018-03-30T07:15:11.794Z,1.37
2018-03-30T07:17:37.534Z,1.36
2018-03-30T07:20:03.297Z,1.46
2018-03-30T07:22:29.055Z,1.43
2018-03-30T07:24:54.786Z,1.46
2018-03-30T07:27:20.529Z,1.67
2018-03-30T07:29:46.263Z,1.81
2018-03-30T07:32:12.009Z,1.85
2018-03-30T07:34:37.752Z,1.96
2018-03-30T07:37:03.510Z,1.89
2018-03-30T07:39:29.255Z,1.73
2018-03-30T07:41:55.003Z,1.85
2018-03-30T07:44:20.766Z,2.07
2018-03-30T07:46:46.516Z,2.16
2018-03-30T07:49:12.265Z,2.31
2018-03-30T07:51:38.044Z,2.38
2018-03-30T07:54:03.835Z,2.16
2018-03-30T07:56:29.554Z,2.32
2018-03-30T07:58:55.309Z,2.52
2018-03-30T08:01:21.080Z,2.44
2018-03-30T08:03:46.826Z,2.50
2018-03-30T08:06:12.599Z,2.46
2018-03-30T08:08:38.347Z,2.68
2018-03-30T08:11:04.089Z,2.80
2018-03-30T08:13:29.829Z,2.99
2018-03-30T08:15:55.594Z,2.96
2018-03-30T08:18:21.325Z,2.94
2018-03-30T08:20:47.074Z,2.84
2018-03-30T08:23:12.815Z,2.65
2018-03-30T08:25:38.562Z,2.93
2018-03-30T08:28:04.315Z,3.15
2018-03-30T08:30:30.059Z,3.23
2018-03-30T08:32:55.809Z,3.40
2018-03-30T08:35:21.538Z,3.38
2018-03-30T08:37:47.305Z,3.70
2018-03-30T08:40:13.057Z,3.68
2018-03-30T08:42:38.826Z,3.64
2018-03-30T08:45:04.594Z,3.75
2018-03-30T08:47:30.344Z,3.86
2018-03-30T08:49:56.083Z,4.23
2018-03-30T08:52:21.842Z,3.94
2018-03-30T08:54:47.602Z,4.29
2018-03-30T08:57:13.345Z,3.93
2018-03-30T08:59:39.092Z,3.26
2018-03-30T09:02:04.847Z,3.02
2018-03-30T09:04:30.586Z,3.72
2018-03-30T09:06:56.332Z,4.03
2018-03-30T09:09:22.105Z,4.15
2018-03-30T09:11:47.859Z,4.29
2018-03-30T09:14:13.620Z,4.22
2018-03-30T09:16:39.378Z,3.68
2018-03-30T09:19:05.136Z,4.01
2018-03-30T09:21:30.886Z,4.08
2018-03-30T09:23:56.638Z,4.39
2018-03-30T09:26:22.382Z,4.17
2018-03-30T09:28:48.142Z,3.92
2018-03-30T09:31:13.904Z,3.86
2018-03-30T09:33:39.686Z,3.78
2018-03-30T09:36:05.438Z,4.28
2018-03-30T09:38:31.203Z,4.78
2018-03-30T09:40:56.933Z,4.50
2018-03-30T09:43:22.663Z,5.18
2018-03-30T09:45:48.421Z,5.02
2018-03-30T09:48:14.158Z,5.25
2018-03-30T09:50:39.914Z,5.49
2018-03-30T09:53:05.661Z,5.78
2018-03-30T09:55:31.407Z,5.60
2018-03-30T09:57:57.148Z,6.09
2018-03-30T10:00:22.915Z,6.11
2018-03-30T10:02:48.665Z,5.69
2018-03-30T10:05:14.415Z,5.43
2018-03-30T10:07:40.161Z,5.44
2018-03-30T10:10:05.923Z,5.67
2018-03-30T10:12:31.662Z,5.53
2018-03-30T10:14:57.412Z,5.87
2018-03-30T10:17:23.142Z,5.78
2018-03-30T10:19:48.887Z,4.97
2018-03-30T10:22:14.630Z,5.23
2018-03-30T10:24:40.402Z,5.30
2018-03-30T10:27:06.142Z,5.18
2018-03-30T10:29:31.873Z,4.92
2018-03-30T10:31:57.628Z,5.29
2018-03-30T10:34:23.358Z,5.30
2018-03-30T10:36:49.109Z,5.06
2018-03-30T10:39:14.854Z,5.47
2018-03-30T10:41:40.615Z,5.26
2018-03-30T10:44:06.370Z,5.11
2018-03-30T10:46:32.122Z,5.21
2018-03-30T10:48:57.865Z,5.28
2018-03-30T10:51:23.618Z,5.67
2018-03-30T10:53:49.358Z,5.76
2018-03-30T10:56:15.110Z,5.45
2018-03-30T10:58:40.866Z,4.83
2018-03-30T11:01:06.619Z,4.93
2018-03-30T11:03:32.352Z,4.84
2018-03-30T11:05:58.103Z,4.79
2018-03-30T11:08:23.849Z,4.64
2018-03-30T11:10:49.610Z,4.55
2018-03-30T11:13:15.346Z,4.64
2018-03-30T11:15:41.090Z,4.85
2018-03-30T11:18:06.830Z,5.16
2018-03-30T11:20:32.586Z,5.26
2018-03-30T11:22:58.318Z,5.54
2018-03-30T11:25:24.054Z,5.28
2018-03-30T11:27:49.807Z,5.20
2018-03-30T11:30:15.538Z,5.06
2018-03-30T11:32:41.282Z,5.19
2018-03-30T11:35:07.040Z,5.33
2018-03-30T11:37:32.799Z,5.38
2018-03-30T11:39:58.547Z,5.28
2018-03-30T11:42:24.288Z,5.55
2018-03-30T11:44:50.025Z,5.20
2018-03-30T11:47:15.813Z,5.20
2018-03-30T11:49:41.570Z,4.99
2018-03-30T11:52:07.346Z,5.11
2018-03-30T11:54:33.083Z,5.19
2018-03-30T11:56:58.832Z,5.20
2018-03-30T11:59:24.563Z,5.32
2018-03-30T12:01:50.334Z,5.11
2018-03-30T12:04:16.053Z,5.25
2018-03-30T12:06:41.782Z,5.28
2018-03-30T12:09:07.532Z,5.08
2018-03-30T12:11:33.265Z,5.20
2018-03-30T12:13:59.010Z,5.44
2018-03-30T12:16:24.739Z,5.36
2018-03-30T12:18:50.491Z,5.41
2018-03-30T12:21:16.222Z,5.62
2018-03-30T12:23:41.994Z,5.56
2018-03-30T12:26:07.754Z,5.58
2018-03-30T12:28:33.509Z,5.86
2018-03-30T12:30:59.280Z,6.01
2018-03-30T12:33:25.038Z,6.24
2018-03-30T12:35:50.891Z,6.45
2018-03-30T12:38:16.664Z,6.26
2018-03-30T12:40:42.413Z,6.66
2018-03-30T12:43:08.161Z,6.40
2018-03-30T12:45:34.007Z,6.71
2018-03-30T12:47:59.758Z,6.61
2018-03-30T12:50:25.520Z,5.91
2018-03-30T12:52:51.259Z,6.72
2018-03-30T12:55:16.996Z,6.66
2018-03-30T12:57:42.759Z,6.33
2018-03-30T13:00:08.500Z,6.60
2018-03-30T13:02:34.235Z,6.57
2018-03-30T13:04:59.990Z,6.73
2018-03-30T13:07:25.775Z,6.78
2018-03-30T13:09:51.528Z,6.54
2018-03-30T13:12:17.288Z,6.75
2018-03-30T13:14:43.124Z,6.69
2018-03-30T13:17:08.865Z,6.47
2018-03-30T13:19:34.627Z,6.46
2018-03-30T13:22:00.357Z,6.26
2018-03-30T13:24:26.101Z,6.51
2018-03-30T13:26:51.873Z,6.78
2018-03-30T13:29:17.630Z,6.88
2018-03-30T13:31:43.380Z,6.61
2018-03-30T13:34:09.145Z,6.34
2018-03-30T13:36:34.930Z,6.32
2018-03-30T13:39:00.691Z,6.41
2018-03-30T13:41:26.438Z,6.45
2018-03-30T13:43:52.736Z,6.34
2018-03-30T13:46:18.484Z,5.96
2018-03-30T13:48:44.243Z,6.16
2018-03-30T13:51:15.034Z,6.12
2018-03-30T13:53:47.870Z,6.21
2018-03-30T13:56:16.500Z,5.87
2018-03-30T13:58:46.243Z,6.36
2018-03-30T14:01:17.866Z,6.32
2018-03-30T14:03:49.641Z,6.29
2018-03-30T14:06:22.478Z,5.96
2018-03-30T14:08:55.120Z,5.95
2018-03-30T14:11:22.594Z,6.07
2018-03-30T14:13:48.375Z,6.24
2018-03-30T14:16:26.197Z,6.28
2018-03-30T14:18:53.731Z,6.24
2018-03-30T14:21:24.269Z,6.25
2018-03-30T14:23:52.952Z,6.36
2018-03-30T14:26:32.613Z,6.12
2018-03-30T14:29:03.250Z,5.76
2018-03-30T14:31:37.354Z,6.11
2018-03-30T14:34:06.942Z,6.06
2018-03-30T14:36:51.632Z,6.16
2018-03-30T14:42:11.935Z,5.89
2018-03-30T14:44:47.493Z,5.67
2018-03-30T14:47:16.206Z,5.59
2018-03-30T14:49:45.742Z,5.72
2018-03-30T14:52:16.489Z,5.89
2018-03-30T14:54:43.210Z,5.51
2018-03-30T14:57:09.918Z,5.82
2018-03-30T15:02:48.155Z,5.68
2018-03-30T15:05:15.871Z,5.55
2018-03-30T15:11:02.421Z,5.46
2018-03-30T15:13:31.935Z,5.65
2018-03-30T15:19:01.416Z,5.50
2018-03-30T15:21:44.090Z,5.49
2018-03-30T15:24:10.790Z,5.51
2018-03-30T15:26:38.393Z,5.43
2018-03-30T15:29:05.962Z,5.43
2018-03-30T15:31:56.429Z,5.50
2018-03-30T15:34:22.199Z,5.38
2018-03-30T15:36:49.975Z,5.38
2018-03-30T15:39:16.358Z,5.46
2018-03-30T15:41:45.943Z,5.32
2018-03-30T15:44:12.015Z,5.31
2018-03-30T15:46:39.570Z,5.29
2018-03-30T15:49:05.333Z,5.41
2018-03-30T15:51:32.082Z,5.42
2018-03-30T15:53:57.701Z,5.35
2018-03-30T15:56:26.470Z,5.40
2018-03-30T15:58:52.226Z,5.40
2018-03-30T16:01:17.969Z,5.25
2018-03-30T16:03:43.707Z,5.27
2018-03-30T16:06:09.486Z,5.16
2018-03-30T16:08:35.222Z,5.12
2018-03-30T16:13:57.425Z,5.01
2018-03-30T16:16:23.234Z,5.00
2018-03-30T16:18:54.957Z,4.93
2018-03-30T16:21:20.578Z,4.96
2018-03-30T16:23:46.187Z,4.87
2018-03-30T16:26:11.813Z,4.82
2018-03-30T16:28:37.414Z,4.75
2018-03-30T16:31:03.042Z,4.70
2018-03-30T16:33:28.650Z,4.68
2018-03-30T16:35:54.262Z,4.70
2018-03-30T16:38:19.888Z,4.65
2018-03-30T16:40:45.497Z,4.65
2018-03-30T16:43:11.109Z,4.57
2018-03-30T16:45:36.782Z,4.53
2018-03-30T16:48:02.428Z,4.52
2018-03-30T16:50:28.051Z,4.45
2018-03-30T16:52:53.686Z,4.39
2018-03-30T16:55:19.326Z,4.31
2018-03-30T16:57:44.965Z,4.29
2018-03-30T17:00:10.598Z,4.24
2018-03-30T17:02:36.214Z,4.21
2018-03-30T17:05:01.831Z,4.17
2018-03-30T17:07:27.457Z,4.10
2018-03-30T17:09:53.068Z,4.07
2018-03-30T17:12:18.706Z,4.00
2018-03-30T17:14:44.331Z,4.01
2018-03-30T17:17:09.962Z,3.92
2018-03-30T17:19:35.571Z,3.89
2018-03-30T17:22:01.232Z,3.83
2018-03-30T17:24:26.846Z,3.75
2018-03-30T17:26:52.858Z,3.68
2018-03-30T17:29:18.610Z,3.65
2018-03-30T17:31:44.410Z,3.65
2018-03-30T17:34:10.158Z,3.54
2018-03-30T17:36:35.799Z,3.52
2018-03-30T17:39:01.446Z,3.41
2018-03-30T17:41:27.092Z,3.44
2018-03-30T17:43:52.710Z,3.40
2018-03-30T17:46:18.358Z,3.29
2018-03-30T17:48:43.981Z,3.28
2018-03-30T17:51:09.615Z,3.20
2018-03-30T17:53:35.360Z,3.15
2018-03-30T17:56:00.989Z,3.12
2018-03-30T17:58:26.660Z,3.13
2018-03-30T18:00:52.276Z,3.06
2018-03-30T18:03:17.979Z,3.07
2018-03-30T18:05:43.618Z,3.01
2018-03-30T18:08:09.231Z,2.97
2018-03-30T18:10:34.854Z,3.02
2018-03-30T18:13:00.452Z,2.95
2018-03-30T18:15:26.082Z,2.85
2018-03-30T18:17:51.700Z,2.81
2018-03-30T18:20:17.339Z,2.77
2018-03-30T18:22:42.947Z,2.78
2018-03-30T18:25:08.581Z,2.68
2018-03-30T18:27:34.193Z,2.70
2018-03-30T18:29:59.819Z,2.70
2018-03-30T18:32:25.446Z,2.63
2018-03-30T18:34:51.077Z,2.60
2018-03-30T18:37:16.703Z,2.52
2018-03-30T18:39:42.330Z,2.51
2018-03-30T18:42:07.954Z,2.55
2018-03-30T18:44:33.581Z,2.47
2018-03-30T18:46:59.190Z,2.41
2018-03-30T18:49:24.814Z,2.42
2018-03-30T18:51:50.434Z,2.38
2018-03-30T18:54:16.047Z,2.38
2018-03-30T18:56:41.670Z,2.34
2018-03-30T18:59:07.302Z,2.36
2018-03-30T19:01:32.925Z,2.35
2018-03-30T19:03:58.541Z,2.32
2018-03-30T19:06:24.178Z,2.28
2018-03-30T19:08:49.798Z,2.31
2018-03-30T19:11:15.433Z,2.28
2018-03-30T19:13:41.042Z,2.30
2018-03-30T19:16:06.695Z,2.24
2018-03-30T19:18:32.323Z,2.30
2018-03-30T19:20:57.940Z,2.25
2018-03-30T19:23:23.579Z,2.17
2018-03-30T19:25:49.222Z,2.17
2018-03-30T19:28:14.843Z,2.13
2018-03-30T19:30:40.496Z,2.13
2018-03-30T19:33:06.117Z,2.14
2018-03-30T19:35:31.753Z,2.21
2018-03-30T19:37:57.374Z,2.20
2018-03-30T19:40:22.987Z,2.18
2018-03-30T19:42:48.624Z,2.21
2018-03-30T19:45:14.235Z,2.19
2018-03-30T19:47:39.861Z,2.24
2018-03-30T19:50:05.492Z,2.24
2018-03-30T19:52:31.128Z,2.23
2018-03-30T19:54:56.742Z,2.25
2018-03-30T19:57:22.382Z,2.22
2018-03-30T19:59:48.006Z,2.27
2018-03-30T20:02:13.647Z,2.30
2018-03-30T20:04:39.259Z,2.32
2018-03-30T20:07:04.878Z,2.31
2018-03-30T20:09:30.481Z,2.33
2018-03-30T20:11:56.099Z,2.29
2018-03-30T20:14:21.711Z,2.39
2018-03-30T20:16:47.338Z,2.38
2018-03-30T20:19:12.955Z,2.43
2018-03-30T20:21:38.574Z,2.44
2018-03-30T20:24:04.186Z,2.48
2018-03-30T20:26:29.822Z,2.54
2018-03-30T20:28:55.493Z,2.50
2018-03-30T20:31:21.076Z,2.51
2018-03-30T20:33:46.705Z,2.49
2018-03-30T20:36:12.323Z,2.47
2018-03-30T20:38:37.945Z,2.43
2018-03-30T20:41:03.575Z,2.45
2018-03-30T20:43:29.198Z,2.43
2018-03-30T20:45:54.806Z,2.43
2018-03-30T20:48:20.430Z,2.39
2018-03-30T20:50:46.046Z,2.39
2018-03-30T20:53:11.671Z,2.39
2018-03-30T20:55:37.276Z,2.47
2018-03-30T20:58:02.895Z,2.43
2018-03-30T21:00:28.511Z,2.42
2018-03-30T21:02:54.126Z,2.42
2018-03-30T21:05:19.741Z,2.43
2018-03-30T21:07:45.360Z,2.42
2018-03-30T21:10:10.977Z,2.33
2018-03-30T21:12:36.603Z,2.34
2018-03-30T21:15:02.221Z,2.33
2018-03-30T21:17:27.843Z,2.30
2018-03-30T21:19:53.452Z,2.26
2018-03-30T21:22:19.071Z,2.26
2018-03-30T21:24:44.694Z,2.24
2018-03-30T21:27:10.301Z,2.20
2018-03-30T21:29:35.928Z,2.17
2018-03-30T21:32:01.532Z,2.19
2018-03-30T21:34:27.162Z,2.20
2018-03-30T21:36:52.773Z,2.17
2018-03-30T21:39:18.462Z,2.09
2018-03-30T21:41:44.014Z,2.09
2018-03-30T21:44:09.649Z,2.06
2018-03-30T21:46:35.261Z,2.03
2018-03-30T21:49:00.879Z,1.97
2018-03-30T21:51:26.494Z,1.97
2018-03-30T21:53:52.097Z,1.97
2018-03-30T21:56:17.715Z,1.89
2018-03-30T21:58:43.340Z,1.86
2018-03-30T22:01:08.952Z,1.90
2018-03-30T22:03:34.579Z,1.84
2018-03-30T22:06:00.197Z,1.79
2018-03-30T22:08:25.810Z,1.80
2018-03-30T22:10:51.438Z,1.74
2018-03-30T22:13:17.046Z,1.74
2018-03-30T22:15:43.681Z,1.77
2018-03-30T22:18:09.294Z,1.74
2018-03-30T22:20:34.914Z,1.72
2018-03-30T22:23:00.534Z,1.69
2018-03-30T22:25:26.166Z,1.66
2018-03-30T22:27:51.771Z,1.68
2018-03-30T22:30:17.384Z,1.65
2018-03-30T22:32:42.996Z,1.65
2018-03-30T22:35:08.623Z,1.65
2018-03-30T22:37:34.245Z,1.64
2018-03-30T22:39:59.850Z,1.64
2018-03-30T22:42:25.488Z,1.60
2018-03-30T22:44:51.309Z,1.59
2018-03-30T22:47:16.953Z,1.61
2018-03-30T22:49:42.573Z,1.58
2018-03-30T22:52:08.206Z,1.62
2018-03-30T22:54:33.818Z,1.59
2018-03-30T22:56:59.522Z,1.59
2018-03-30T22:59:25.184Z,1.61
2018-03-30T23:01:50.898Z,1.53
2018-03-30T23:04:16.586Z,1.58
2018-03-30T23:06:42.234Z,1.59
2018-03-30T23:09:07.847Z,1.59
2018-03-30T23:11:33.612Z,1.60
2018-03-30T23:13:59.369Z,1.56
2018-03-30T23:16:25.157Z,1.58
2018-03-30T23:18:50.763Z,1.59
2018-03-30T23:21:16.592Z,1.53
2018-03-30T23:23:42.431Z,1.51
2018-03-30T23:26:08.482Z,1.58
2018-03-30T23:28:34.235Z,1.57
2018-03-30T23:31:03.896Z,1.57
2018-03-30T23:33:29.827Z,1.54
2018-03-30T23:35:55.598Z,1.55
2018-03-30T23:38:21.215Z,1.51
2018-03-30T23:40:46.917Z,1.51
2018-03-30T23:43:12.722Z,1.55
2018-03-30T23:45:38.416Z,1.53
2018-03-30T23:48:04.127Z,1.53
2018-03-30T23:50:29.925Z,1.52
2018-03-30T23:52:55.604Z,1.53
2018-03-30T23:55:21.404Z,1.56
2018-03-30T23:57:47.046Z,1.48
